Time;durP1;ratioP1;P1;durP2;ratioP2;P2;SDS_P1;SDS_P2;PMS_P1;PMS_P2;Temp;Humidity;BMP_temperature;BMP_pressure;BME280_temperature;BME280_humidity;BME280_pressure;Samples;Min_cycle;Max_cycle;Signal;HPM_P1;HPM_P2
2020/12/30 00:01:48;;;;;;;7.30;4.57;;;;;;;-3.41;100.00;100598.66;2584043;55;20135;-69
2020/12/30 00:04:16;;;;;;;10.52;4.87;;;;;;;-3.39;100.00;100596.91;2578902;55;20118;-67
2020/12/30 00:06:44;;;;;;;7.03;4.18;;;;;;;-3.52;100.00;100593.66;2584064;55;20094;-69
2020/12/30 00:09:11;;;;;;;9.32;5.37;;;;;;;-3.52;100.00;100591.91;2584245;55;20104;-64
2020/12/30 00:11:39;;;;;;;7.70;4.95;;;;;;;-3.51;100.00;100597.97;2584039;55;20763;-69
2020/12/30 00:14:07;;;;;;;10.85;6.80;;;;;;;-3.60;100.00;100599.03;2583891;55;20116;-64
2020/12/30 00:16:34;;;;;;;8.55;5.00;;;;;;;-3.53;100.00;100595.41;2583894;55;20116;-69
2020/12/30 00:19:02;;;;;;;9.15;5.70;;;;;;;-3.50;100.00;100600.56;2583917;55;20149;-69
2020/12/30 00:21:29;;;;;;;9.38;5.20;;;;;;;-3.60;100.00;100604.25;2583955;55;20123;-64
2020/12/30 00:23:56;;;;;;;11.63;5.00;;;;;;;-3.54;100.00;100591.06;2583933;55;20127;-64
2020/12/30 00:26:24;;;;;;;9.32;5.53;;;;;;;-3.60;100.00;100598.16;2583995;55;20665;-69
2020/12/30 00:28:51;;;;;;;7.95;5.10;;;;;;;-3.51;100.00;100583.22;2583894;55;20138;-69
2020/12/30 00:31:19;;;;;;;9.45;5.75;;;;;;;-3.53;100.00;100587.56;2583902;55;20123;-64
2020/12/30 00:33:47;;;;;;;7.57;4.68;;;;;;;-3.52;100.00;100581.47;2583755;55;20109;-65
2020/12/30 00:36:14;;;;;;;12.52;5.35;;;;;;;-3.55;100.00;100602.41;2583893;55;20108;-69
2020/12/30 00:38:43;;;;;;;7.78;4.95;;;;;;;-3.62;100.00;100589.50;2583919;55;20500;-64
2020/12/30 00:41:13;;;;;;;7.15;4.45;;;;;;;-3.53;100.00;100582.34;2583869;55;20122;-64
2020/12/30 00:43:41;;;;;;;8.90;5.47;;;;;;;-3.56;100.00;100590.25;2583844;55;20613;-69
2020/12/30 00:46:14;;;;;;;9.30;4.85;;;;;;;-3.43;100.00;100579.56;2583736;55;20487;-64
2020/12/30 00:48:43;;;;;;;7.37;3.78;;;;;;;-3.45;100.00;100589.19;2583672;55;20621;-69
2020/12/30 00:51:13;;;;;;;7.85;3.90;;;;;;;-3.43;100.00;100587.41;2583824;55;20105;-64
2020/12/30 00:53:41;;;;;;;10.70;5.85;;;;;;;-3.45;100.00;100597.00;2583690;55;20154;-69
2020/12/30 00:56:11;;;;;;;9.38;5.40;;;;;;;-3.52;100.00;100580.63;2583802;55;20124;-64
2020/12/30 00:58:40;;;;;;;10.63;6.22;;;;;;;-3.50;100.00;100584.94;2583649;55;20116;-64
2020/12/30 01:01:09;;;;;;;14.40;5.68;;;;;;;-3.40;100.00;100571.72;2583718;55;20109;-69
2020/12/30 01:03:46;;;;;;;12.82;6.60;;;;;;;-3.42;100.00;100573.47;2583756;55;20152;-63
2020/12/30 01:06:13;;;;;;;10.43;6.30;;;;;;;-3.47;100.00;100572.69;2583931;55;20116;-64
2020/12/30 01:08:40;;;;;;;11.15;6.55;;;;;;;-3.47;100.00;100562.28;2583756;55;20123;-63
2020/12/30 01:11:08;;;;;;;8.32;5.15;;;;;;;-3.47;100.00;100586.59;2583904;55;20885;-64
2020/12/30 01:13:35;;;;;;;10.38;6.55;;;;;;;-3.46;100.00;100569.22;2583962;55;20180;-64
2020/12/30 01:16:02;;;;;;;8.52;6.28;;;;;;;-3.46;100.00;100575.25;2583913;55;20549;-64
2020/12/30 01:18:30;;;;;;;11.55;7.03;;;;;;;-3.40;100.00;100576.94;2583788;55;20623;-64
2020/12/30 01:21:04;;;;;;;10.13;5.20;;;;;;;-3.41;100.00;100559.53;2583777;55;20127;-64
2020/12/30 01:23:31;;;;;;;11.10;6.05;;;;;;;-3.45;100.00;100563.09;2583739;55;20117;-69
2020/12/30 01:25:58;;;;;;;8.27;5.22;;;;;;;-3.34;100.00;100573.34;2583603;55;20131;-69
2020/12/30 01:28:26;;;;;;;12.90;7.80;;;;;;;-3.42;100.00;100576.06;2583656;55;20645;-69
2020/12/30 01:30:53;;;;;;;13.05;7.60;;;;;;;-3.38;100.00;100575.13;2583717;55;20108;-69
2020/12/30 01:33:20;;;;;;;14.48;7.82;;;;;;;-3.39;100.00;100578.66;2583627;55;20603;-65
2020/12/30 01:35:48;;;;;;;9.25;5.53;;;;;;;-3.39;100.00;100568.22;2578617;55;20121;-69
2020/12/30 01:38:16;;;;;;;13.43;7.68;;;;;;;-3.39;100.00;100566.44;2583765;55;20412;-69
2020/12/30 01:40:44;;;;;;;13.02;5.95;;;;;;;-3.39;100.00;100571.66;2583563;55;20113;-64
2020/12/30 01:43:12;;;;;;;13.35;7.40;;;;;;;-3.42;100.00;100566.50;2584107;55;20109;-64
2020/12/30 01:45:40;;;;;;;13.38;6.78;;;;;;;-3.37;100.00;100579.47;2583629;55;20113;-69
2020/12/30 01:48:17;;;;;;;12.68;7.22;;;;;;;-3.34;100.00;100574.19;2583822;55;20895;-69
2020/12/30 01:50:44;;;;;;;13.02;7.65;;;;;;;-3.32;100.00;100564.56;2583908;55;20116;-69
2020/12/30 01:53:12;;;;;;;15.18;7.62;;;;;;;-3.32;100.00;100571.53;2583634;55;20121;-69
2020/12/30 01:55:41;;;;;;;14.77;7.65;;;;;;;-3.38;100.00;100562.94;2583488;55;20631;-64
2020/12/30 01:58:10;;;;;;;13.10;7.55;;;;;;;-3.31;100.00;100568.03;2583491;55;20126;-64
2020/12/30 02:00:39;;;;;;;13.30;7.75;;;;;;;-3.37;100.00;100564.66;2583730;55;20113;-69
2020/12/30 02:03:09;;;;;;;15.23;8.60;;;;;;;-3.29;100.00;100569.75;2583466;55;20119;-69
2020/12/30 02:05:37;;;;;;;15.10;8.02;;;;;;;-3.28;100.00;100563.63;2583534;55;20105;-64
2020/12/30 02:08:05;;;;;;;14.70;7.55;;;;;;;-3.24;100.00;100564.44;2583506;55;20120;-69
2020/12/30 02:10:33;;;;;;;10.60;5.57;;;;;;;-3.15;100.00;100558.16;2583764;55;20200;-69
2020/12/30 02:13:01;;;;;;;12.68;8.25;;;;;;;-3.22;100.00;100553.03;2583638;55;20128;-65
2020/12/30 02:15:30;;;;;;;12.77;6.70;;;;;;;-3.24;100.00;100552.22;2583795;55;20107;-64
2020/12/30 02:17:58;;;;;;;27.33;9.63;;;;;;;-3.20;100.00;100557.41;2578733;55;20125;-69
2020/12/30 02:20:30;;;;;;;17.65;8.70;;;;;;;-3.20;100.00;100554.78;2583683;55;20109;-64
2020/12/30 02:23:03;;;;;;;13.23;7.68;;;;;;;-3.17;100.00;100560.78;2583567;55;20581;-69
2020/12/30 02:25:31;;;;;;;16.70;8.40;;;;;;;-3.19;100.00;100567.78;2583516;55;20116;-64
2020/12/30 02:27:59;;;;;;;17.52;9.35;;;;;;;-3.15;100.00;100560.75;2583446;55;20482;-64
2020/12/30 02:30:26;;;;;;;15.25;7.53;;;;;;;-3.15;100.00;100556.41;2578566;55;20123;-63
2020/12/30 02:32:54;;;;;;;15.43;7.68;;;;;;;-3.16;100.00;100553.81;2583526;55;20124;-69
2020/12/30 02:35:23;;;;;;;16.00;8.40;;;;;;;-3.15;100.00;100552.94;2583423;55;20489;-69
2020/12/30 02:37:50;;;;;;;15.10;7.78;;;;;;;-3.15;100.00;100563.38;2583293;55;20112;-64
2020/12/30 02:40:18;;;;;;;12.20;7.37;;;;;;;-3.15;100.00;100539.88;2583441;55;20783;-64
2020/12/30 02:42:46;;;;;;;12.95;6.75;;;;;;;-3.04;100.00;100550.09;2583469;55;20121;-69
2020/12/30 02:45:14;;;;;;;15.40;8.38;;;;;;;-3.05;100.00;100564.91;2583422;55;20110;-69
2020/12/30 02:47:41;;;;;;;15.15;8.50;;;;;;;-3.08;100.00;100549.31;2583425;55;20500;-69
2020/12/30 02:50:09;;;;;;;16.58;9.55;;;;;;;-3.10;100.00;100541.50;2583306;55;20125;-69
2020/12/30 02:52:36;;;;;;;12.18;7.82;;;;;;;-3.05;100.00;100530.12;2583816;55;20108;-65
2020/12/30 02:55:03;;;;;;;14.77;8.50;;;;;;;-3.05;100.00;100536.19;2584200;55;20123;-64
2020/12/30 02:57:32;;;;;;;18.02;9.18;;;;;;;-3.04;100.00;100530.06;2584447;55;20117;-69
2020/12/30 03:00:00;;;;;;;16.65;9.38;;;;;;;-3.00;100.00;100544.78;2584044;55;20112;-69
2020/12/30 03:02:27;;;;;;;24.33;12.02;;;;;;;-3.05;100.00;100544.00;2584231;55;20135;-69
2020/12/30 03:04:55;;;;;;;17.37;9.95;;;;;;;-2.93;100.00;100537.69;2584132;55;20109;-69
2020/12/30 03:07:22;;;;;;;16.80;9.25;;;;;;;-2.94;100.00;100547.25;2584097;55;20128;-64
2020/12/30 03:09:50;;;;;;;21.08;9.88;;;;;;;-2.93;100.00;100540.28;2584173;55;20483;-64
2020/12/30 03:12:17;;;;;;;17.15;9.73;;;;;;;-2.92;100.00;100533.28;2584146;55;20127;-69
2020/12/30 03:14:44;;;;;;;18.02;8.43;;;;;;;-2.87;100.00;100542.75;2584091;55;20116;-69
2020/12/30 03:17:13;;;;;;;12.90;6.68;;;;;;;-2.76;100.00;100537.28;2584129;55;20104;-69
2020/12/30 03:19:40;;;;;;;23.12;8.18;;;;;;;-2.83;100.00;100544.41;2584040;55;20127;-64
2020/12/30 03:22:07;;;;;;;14.80;7.32;;;;;;;-2.76;100.00;100537.28;2584113;55;20136;-64
2020/12/30 03:24:37;;;;;;;16.50;9.23;;;;;;;-2.73;100.00;100545.03;2584208;55;20120;-68
2020/12/30 03:27:04;;;;;;;16.58;9.20;;;;;;;-2.72;100.00;100531.09;2584137;55;20110;-69
2020/12/30 03:29:31;;;;;;;15.32;8.80;;;;;;;-2.77;100.00;100538.19;2584226;55;20135;-68
2020/12/30 03:31:59;;;;;;;15.32;7.97;;;;;;;-2.71;100.00;100552.84;2578970;55;20587;-64
2020/12/30 03:34:27;;;;;;;12.50;6.62;;;;;;;-2.69;100.00;100562.37;2584056;55;20139;-64
2020/12/30 03:36:54;;;;;;;16.52;7.65;;;;;;;-2.75;100.00;100565.13;2584071;55;20120;-64
2020/12/30 03:39:22;;;;;;;17.10;9.82;;;;;;;-2.59;100.00;100562.19;2584124;55;20127;-69
2020/12/30 03:41:50;;;;;;;10.80;6.15;;;;;;;-2.64;100.00;100564.03;2584083;55;20109;-69
2020/12/30 03:44:17;;;;;;;12.32;5.43;;;;;;;-2.62;100.00;100572.69;2584084;55;20112;-69
2020/12/30 03:46:45;;;;;;;13.25;7.68;;;;;;;-2.61;100.00;100580.50;2584046;55;20128;-64
2020/12/30 03:49:12;;;;;;;18.48;9.63;;;;;;;-2.62;100.00;100564.84;2583919;55;20112;-69
2020/12/30 03:51:40;;;;;;;16.70;8.57;;;;;;;-2.62;100.00;100578.78;2583962;55;20145;-69
2020/12/30 03:54:08;;;;;;;14.38;9.00;;;;;;;-2.58;100.00;100584.78;2584091;55;20481;-64
2020/12/30 03:56:35;;;;;;;17.60;8.88;;;;;;;-2.64;100.00;100569.25;2583973;55;20116;-69
2020/12/30 03:59:02;;;;;;;16.75;8.65;;;;;;;-2.58;100.00;100566.50;2583877;55;20154;-64
2020/12/30 04:01:30;;;;;;;14.05;7.57;;;;;;;-2.55;100.00;100572.53;2583915;55;20157;-69
2020/12/30 04:03:58;;;;;;;16.02;9.93;;;;;;;-2.56;100.00;100567.31;2584146;55;20132;-69
2020/12/30 04:06:25;;;;;;;18.62;9.55;;;;;;;-2.58;100.00;100567.34;2583994;55;20110;-69
2020/12/30 04:08:53;;;;;;;11.80;6.85;;;;;;;-2.50;100.00;100569.81;2584033;55;20134;-66
2020/12/30 04:11:21;;;;;;;16.42;9.60;;;;;;;-2.48;100.00;100560.19;2583922;55;20141;-64
2020/12/30 04:13:48;;;;;;;14.60;8.07;;;;;;;-2.47;100.00;100559.28;2584020;55;20172;-64
2020/12/30 04:16:21;;;;;;;16.85;7.18;;;;;;;-2.38;100.00;100551.22;2578865;55;20131;-64
2020/12/30 04:18:49;;;;;;;14.07;7.18;;;;;;;-2.35;100.00;100555.53;2583882;55;20718;-64
2020/12/30 04:21:20;;;;;;;14.65;7.68;;;;;;;-2.38;100.00;100566.91;2583889;55;20142;-69
2020/12/30 04:23:48;;;;;;;14.93;8.68;;;;;;;-2.39;100.00;100559.97;2583875;55;20526;-64
2020/12/30 04:26:16;;;;;;;25.17;9.32;;;;;;;-2.38;100.00;100561.69;2583884;55;20131;-69
2020/12/30 04:28:44;;;;;;;17.05;9.38;;;;;;;-2.28;100.00;100571.91;2583875;55;20131;-69
2020/12/30 04:31:12;;;;;;;19.50;9.10;;;;;;;-2.34;100.00;100562.47;2583895;55;20171;-69
2020/12/30 04:33:39;;;;;;;17.75;9.30;;;;;;;-2.32;100.00;100565.03;2583825;55;20781;-67
2020/12/30 04:36:08;;;;;;;15.20;8.40;;;;;;;-2.29;100.00;100570.19;2583876;55;20127;-69
2020/12/30 04:38:36;;;;;;;17.05;9.93;;;;;;;-2.32;100.00;100572.87;2584094;55;20112;-69
2020/12/30 04:41:06;;;;;;;17.27;9.38;;;;;;;-2.32;100.00;100570.25;2584180;55;20523;-72
2020/12/30 04:43:36;;;;;;;15.65;9.27;;;;;;;-2.19;100.00;100561.22;2583875;55;20622;-70
2020/12/30 04:46:05;;;;;;;16.65;9.63;;;;;;;-2.29;100.00;100580.66;2584128;55;20633;-64
2020/12/30 04:48:33;;;;;;;15.85;8.32;;;;;;;-2.27;100.00;100573.63;2591470;55;20499;-68
2020/12/30 04:51:01;;;;;;;13.65;7.87;;;;;;;-2.23;100.00;100572.63;2590895;55;20653;-64
2020/12/30 04:53:29;;;;;;;18.12;10.57;;;;;;;-2.22;100.00;100576.97;2591166;55;20131;-64
2020/12/30 04:56:00;;;;;;;19.00;8.68;;;;;;;-2.15;100.00;100575.94;2591221;55;20113;-65
2020/12/30 04:58:28;;;;;;;17.35;10.05;;;;;;;-2.17;100.00;100595.16;2590406;55;20631;-64
2020/12/30 05:00:58;;;;;;;20.17;11.70;;;;;;;-2.16;100.00;100573.34;2588734;55;20108;-69
2020/12/30 05:03:28;;;;;;;16.15;9.52;;;;;;;-2.09;100.00;100588.00;2585764;55;20112;-64
2020/12/30 05:06:00;;;;;;;20.33;11.05;;;;;;;-2.12;100.00;100588.91;2585940;55;20127;-69
2020/12/30 05:08:28;;;;;;;;;;;;;;;-2.00;100.00;100585.16;2583763;55;20117;-64
2020/12/30 05:10:56;;;;;;;27.20;16.05;;;;;;;-2.11;100.00;100595.03;2583362;55;20003;-64
2020/12/30 05:13:23;;;;;;;21.65;11.95;;;;;;;-2.12;100.00;100588.91;2583382;55;20101;-69
2020/12/30 05:15:50;;;;;;;20.73;11.20;;;;;;;-2.10;100.00;100613.28;2583082;55;20119;-70
2020/12/30 05:18:20;;;;;;;21.10;10.90;;;;;;;-2.07;100.00;100606.28;2583246;55;20110;-69
2020/12/30 05:20:48;;;;;;;24.95;11.73;;;;;;;-2.01;100.00;100601.75;2583334;55;20113;-64
2020/12/30 05:23:16;;;;;;;19.67;11.10;;;;;;;-2.03;100.00;100602.66;2583274;55;20689;-68
2020/12/30 05:25:45;;;;;;;20.67;12.13;;;;;;;-2.04;100.00;100607.06;2583338;55;20134;-64
2020/12/30 05:28:14;;;;;;;21.25;11.25;;;;;;;-2.05;100.00;100609.69;2583078;55;20119;-64
2020/12/30 05:30:43;;;;;;;16.98;10.63;;;;;;;-2.04;100.00;100601.81;2584189;55;21648;-64
2020/12/30 05:33:11;;;;;;;22.73;12.70;;;;;;;-2.00;100.00;100602.63;2585966;55;20116;-69
2020/12/30 05:35:39;;;;;;;20.58;10.18;;;;;;;-1.91;100.00;100609.38;2585857;55;20143;-70
2020/12/30 05:38:06;;;;;;;22.25;12.23;;;;;;;-1.93;100.00;100613.78;2585510;55;20174;-68
2020/12/30 05:40:34;;;;;;;22.92;11.10;;;;;;;-1.89;100.00;100605.81;2585981;55;20135;-70
2020/12/30 05:43:12;;;;;;;19.37;10.85;;;;;;;-1.87;100.00;100611.88;2585522;55;20432;-63
2020/12/30 05:45:48;;;;;;;26.77;12.40;;;;;;;-1.85;100.00;100615.28;2586055;55;20134;-64
2020/12/30 05:48:17;;;;;;;23.27;12.05;;;;;;;-1.85;100.00;100623.16;2585494;55;20136;-69
2020/12/30 05:50:49;;;;;;;20.40;11.50;;;;;;;-1.80;100.00;100619.53;2586089;55;20158;-69
2020/12/30 05:53:17;;;;;;;21.90;10.52;;;;;;;-1.71;100.00;100617.56;2586124;55;20116;-68
2020/12/30 05:55:47;;;;;;;21.55;11.12;;;;;;;-1.77;100.00;100609.03;2586424;55;20108;-64
2020/12/30 05:58:16;;;;;;;20.23;11.77;;;;;;;-1.69;100.00;100617.53;2585950;55;20112;-64
2020/12/30 06:00:45;;;;;;;26.20;12.85;;;;;;;-1.64;100.00;100612.19;2586081;55;20125;-68
2020/12/30 06:03:14;;;;;;;17.27;10.43;;;;;;;-1.63;100.00;100612.12;2583425;55;20112;-68
2020/12/30 06:05:41;;;;;;;21.50;12.60;;;;;;;-1.61;100.00;100626.03;2583406;55;20104;-68
2020/12/30 06:08:10;;;;;;;17.05;7.82;;;;;;;-1.52;100.00;100621.44;2583613;55;20101;-64
2020/12/30 06:10:42;;;;;;;21.67;10.40;;;;;;;-1.47;100.00;100627.44;2583605;55;20110;-65
2020/12/30 06:13:23;;;;;;;24.10;12.63;;;;;;;-1.52;100.00;100640.66;2584900;55;20116;-64
2020/12/30 06:15:56;;;;;;;27.20;12.02;;;;;;;-1.52;100.00;100645.00;2585820;55;20112;-66
2020/12/30 06:18:23;;;;;;;27.05;12.65;;;;;;;-1.43;100.00;100650.00;2587734;55;20635;-68
2020/12/30 06:20:52;;;;;;;24.10;12.00;;;;;;;-1.43;100.00;100643.03;2588666;55;20121;-68
2020/12/30 06:23:20;;;;;;;24.65;12.85;;;;;;;-1.36;100.00;100634.97;2588657;55;20121;-68
2020/12/30 06:25:48;;;;;;;23.98;12.77;;;;;;;-1.37;100.00;100639.38;2588361;55;20113;-68
2020/12/30 06:28:17;;;;;;;22.10;10.23;;;;;;;-1.33;100.00;100648.84;2586779;55;20120;-64
2020/12/30 06:30:45;;;;;;;25.10;13.38;;;;;;;-1.34;100.00;100651.53;2586770;55;20112;-65
2020/12/30 06:33:13;;;;;;;24.20;12.75;;;;;;;-1.33;100.00;100643.63;2586944;55;20120;-68
2020/12/30 06:35:42;;;;;;;27.42;14.27;;;;;;;-1.31;100.00;100654.91;2581968;55;20124;-68
2020/12/30 06:38:21;;;;;;;22.30;13.60;;;;;;;-1.28;100.00;100672.28;2587157;55;20148;-64
2020/12/30 06:40:53;;;;;;;27.15;13.88;;;;;;;-1.34;100.00;100655.00;2588068;55;20134;-68
2020/12/30 06:43:38;;;;;;;21.98;11.25;;;;;;;-1.08;100.00;100635.09;2588769;55;20619;-64
2020/12/30 06:46:07;;;;;;;25.02;12.60;;;;;;;-1.17;100.00;100646.69;2588918;55;20126;-64
2020/12/30 06:48:52;;;;;;;27.60;13.30;;;;;;;-1.11;100.00;100661.38;2588740;55;20161;-64
2020/12/30 06:51:20;;;;;;;16.87;9.20;;;;;;;-1.10;100.00;100660.50;2588921;55;20104;-64
2020/12/30 06:53:52;;;;;;;24.92;13.57;;;;;;;-1.09;100.00;100654.34;2588764;55;20522;-68
2020/12/30 06:56:37;;;;;;;25.73;12.95;;;;;;;-1.07;100.00;100672.62;2588642;55;20116;-65
2020/12/30 06:59:05;;;;;;;26.80;9.95;;;;;;;-0.98;100.00;100652.28;2588659;55;20111;-64
2020/12/30 07:01:57;;;;;;;18.50;11.23;;;;;;;-0.99;100.00;100655.81;2588683;55;20112;-68
2020/12/30 07:04:25;;;;;;;23.40;11.38;;;;;;;-0.95;100.00;100660.94;2588711;55;20123;-68
2020/12/30 07:06:53;;;;;;;20.35;11.10;;;;;;;-0.93;100.00;100661.75;2588909;55;20109;-68
2020/12/30 07:09:30;;;;;;;15.68;8.85;;;;;;;-0.81;100.00;100663.19;2588790;55;20104;-64
2020/12/30 07:11:58;;;;;;;21.92;11.93;;;;;;;-0.89;100.00;100664.25;2589347;55;20112;-64
2020/12/30 07:14:28;;;;;;;23.23;10.70;;;;;;;-0.78;100.00;100671.81;2589199;55;20631;-65
2020/12/30 07:16:57;;;;;;;20.60;11.07;;;;;;;-0.75;100.00;100678.72;2588904;55;20105;-69
2020/12/30 07:19:27;;;;;;;19.55;11.65;;;;;;;-0.76;100.00;100672.62;2589073;55;20120;-64
2020/12/30 07:22:00;;;;;;;21.62;10.75;;;;;;;-0.73;100.00;100671.69;2588833;55;20487;-68
2020/12/30 07:24:31;;;;;;;13.68;8.02;;;;;;;-0.66;100.00;100672.38;2589146;55;20105;-64
2020/12/30 07:27:00;;;;;;;19.65;11.63;;;;;;;-0.67;100.00;100668.03;2588754;55;20112;-65
2020/12/30 07:29:28;;;;;;;19.35;10.30;;;;;;;-0.69;100.00;100668.06;2588562;55;20117;-64
2020/12/30 07:31:59;;;;;;;22.13;11.50;;;;;;;-0.67;100.00;100665.41;2588452;55;20120;-68
2020/12/30 07:34:29;;;;;;;21.85;11.98;;;;;;;-0.64;100.00;100675.78;2588466;55;20641;-64
2020/12/30 07:36:57;;;;;;;18.23;11.57;;;;;;;-0.64;100.00;100665.31;2588778;55;20122;-65
2020/12/30 07:39:29;;;;;;;15.90;9.32;;;;;;;-0.53;100.00;100676.34;2588835;55;20185;-67
2020/12/30 07:41:58;;;;;;;19.05;11.20;;;;;;;-0.57;100.00;100682.56;2589467;55;20134;-65
2020/12/30 07:44:27;;;;;;;17.87;10.15;;;;;;;-0.58;100.00;100681.72;2589437;55;20122;-68
2020/12/30 07:47:01;;;;;;;16.10;8.40;;;;;;;-0.48;100.00;100698.03;2589478;55;20105;-68
2020/12/30 07:49:28;;;;;;;16.17;10.05;;;;;;;-0.50;100.00;100705.09;2589502;55;20527;-67
2020/12/30 07:51:58;;;;;;;19.27;10.52;;;;;;;-0.50;100.00;100712.97;2589319;55;20104;-68
2020/12/30 07:54:26;;;;;;;14.27;8.25;;;;;;;-0.39;100.00;100717.03;2589241;55;20492;-68
2020/12/30 07:57:03;;;;;;;13.55;8.57;;;;;;;-0.35;100.00;100713.41;2589418;55;20126;-68
2020/12/30 07:59:30;;;;;;;12.80;7.85;;;;;;;-0.39;100.00;100712.63;2589342;55;20120;-68
2020/12/30 08:02:00;;;;;;;13.60;8.73;;;;;;;-0.32;100.00;100714.19;2589700;55;20130;-65
2020/12/30 08:04:29;;;;;;;14.93;8.40;;;;;;;-0.32;100.00;100713.31;2589296;55;20116;-64
2020/12/30 08:06:57;;;;;;;13.07;7.80;;;;;;;-0.26;100.00;100725.37;2589508;55;20124;-65
2020/12/30 08:09:28;;;;;;;12.43;6.93;;;;;;;-0.22;100.00;100725.22;2589259;55;20630;-65
2020/12/30 08:11:58;;;;;;;12.45;7.82;;;;;;;-0.22;100.00;100735.72;2589316;55;20124;-64
2020/12/30 08:14:28;;;;;;;14.18;6.95;;;;;;;-0.21;100.00;100732.19;2589276;55;20629;-64
2020/12/30 08:16:58;;;;;;;11.50;7.68;;;;;;;-0.23;100.00;100743.66;2589262;55;20123;-68
2020/12/30 08:19:30;;;;;;;14.80;8.95;;;;;;;-0.17;100.00;100727.72;2589173;55;20109;-67
2020/12/30 08:22:06;;;;;;;14.90;8.02;;;;;;;-0.16;100.00;100746.03;2589412;55;20112;-68
2020/12/30 08:24:36;;;;;;;14.87;8.98;;;;;;;-0.18;100.00;100745.22;2589244;55;20105;-64
2020/12/30 08:27:05;;;;;;;14.35;7.68;;;;;;;-0.12;100.00;100757.31;2589286;55;20138;-68
2020/12/30 08:29:34;;;;;;;14.20;8.95;;;;;;;-0.11;100.00;100748.53;2589256;55;20120;-65
2020/12/30 08:32:06;;;;;;;14.32;8.77;;;;;;;-0.12;100.00;100759.06;2589193;55;20116;-64
2020/12/30 08:34:39;;;;;;;16.70;9.38;;;;;;;-0.11;100.00;100752.91;2589211;55;20127;-68
2020/12/30 08:37:11;;;;;;;14.55;8.70;;;;;;;-0.12;100.00;100752.06;2589404;55;20660;-65
2020/12/30 08:39:45;;;;;;;10.80;6.95;;;;;;;-0.07;100.00;100755.37;2589440;55;20131;-67
2020/12/30 08:42:38;;;;;;;20.62;11.57;;;;;;;-0.08;100.00;100758.06;2589291;55;20118;-64
2020/12/30 08:45:08;;;;;;;12.90;7.53;;;;;;;-0.08;100.00;100764.16;2589267;55;20129;-64
2020/12/30 08:47:39;;;;;;;12.10;8.38;;;;;;;-0.10;100.00;100754.63;2589091;55;20558;-65
2020/12/30 08:50:07;;;;;;;11.40;7.18;;;;;;;-0.09;100.00;100766.84;2589003;55;20681;-67
2020/12/30 08:52:42;;;;;;;11.38;6.95;;;;;;;-0.09;100.00;100762.44;2589165;55;20127;-64
2020/12/30 08:55:10;;;;;;;11.35;6.78;;;;;;;0.03;100.00;100762.97;2589301;55;20131;-64
2020/12/30 08:57:43;;;;;;;14.23;8.43;;;;;;;0.03;100.00;100771.72;2589179;55;20149;-68
2020/12/30 09:00:20;;;;;;;12.18;7.07;;;;;;;0.07;100.00;100773.34;2589149;55;20113;-64
2020/12/30 09:02:48;;;;;;;12.52;7.03;;;;;;;0.08;100.00;100774.22;2589296;55;20116;-64
2020/12/30 09:05:25;;;;;;;10.95;5.57;;;;;;;0.13;100.00;100786.28;2589199;55;20122;-64
2020/12/30 09:07:53;;;;;;;15.57;7.43;;;;;;;0.10;100.00;100796.87;2589381;55;20126;-68
2020/12/30 09:10:21;;;;;;;17.35;8.90;;;;;;;0.13;100.00;100793.28;2588979;55;20119;-67
2020/12/30 09:12:49;;;;;;;12.63;7.65;;;;;;;0.15;100.00;100806.37;2589203;55;20131;-64
2020/12/30 09:15:16;;;;;;;12.95;8.02;;;;;;;0.15;100.00;100798.50;2589118;55;20130;-64
2020/12/30 09:17:58;;;;;;;11.80;7.37;;;;;;;0.16;100.00;100802.84;2589415;55;20113;-68
2020/12/30 09:20:31;;;;;;;;;;;;;;;0.22;100.00;100818.41;2589371;55;20126;-67
2020/12/30 09:23:00;;;;;;;12.70;7.10;;;;;;;0.11;100.00;100813.47;2589417;55;19994;-67
2020/12/30 09:25:30;;;;;;;12.73;7.62;;;;;;;0.16;100.00;100818.56;2589210;55;20121;-67
2020/12/30 09:27:58;;;;;;;12.73;7.85;;;;;;;0.17;100.00;100830.78;2589065;55;20112;-64
2020/12/30 09:30:27;;;;;;;12.60;7.40;;;;;;;0.15;100.00;100822.09;2589184;55;20118;-64
2020/12/30 09:33:09;;;;;;;12.75;6.05;;;;;;;0.19;100.00;100823.72;2589019;55;20134;-67
2020/12/30 09:35:36;;;;;;;;;;;;;;;0.30;100.00;100815.53;2589172;55;20586;-64
2020/12/30 09:38:04;;;;;;;12.45;7.05;;;;;;;0.25;100.00;100831.44;2589028;55;19988;-68
2020/12/30 09:40:40;;;;;;;9.23;6.15;;;;;;;0.30;100.00;100819.03;2589143;55;20116;-64
2020/12/30 09:43:10;;;;;;;11.68;5.28;;;;;;;0.21;100.00;100840.31;2589285;55;20112;-67
2020/12/30 09:45:38;;;;;;;9.85;6.82;;;;;;;0.24;100.00;100837.59;2588987;55;20113;-64
2020/12/30 09:48:10;;;;;;;10.07;6.03;;;;;;;0.19;100.00;100835.09;2589020;55;20650;-67
2020/12/30 09:50:39;;;;;;;9.98;6.25;;;;;;;0.22;100.00;100840.25;2589036;55;20104;-64
2020/12/30 09:53:08;;;;;;;8.85;5.62;;;;;;;0.18;100.00;100837.75;2589162;55;20606;-67
2020/12/30 09:55:36;;;;;;;8.38;5.50;;;;;;;0.15;100.00;100833.47;2588936;55;20115;-64
2020/12/30 09:58:04;;;;;;;8.90;6.03;;;;;;;0.11;100.00;100837.09;2588875;55;20504;-64
2020/12/30 10:00:31;;;;;;;8.15;4.87;;;;;;;0.15;100.00;100840.47;2589199;55;20174;-64
2020/12/30 10:02:59;;;;;;;8.82;5.57;;;;;;;0.15;100.00;100843.97;2588848;55;20128;-64
2020/12/30 10:05:27;;;;;;;11.30;6.00;;;;;;;0.09;100.00;100847.59;2589039;55;20120;-67
2020/12/30 10:07:55;;;;;;;8.43;5.87;;;;;;;0.07;100.00;100851.22;2589146;55;20113;-64
2020/12/30 10:10:22;;;;;;;8.75;5.57;;;;;;;0.11;100.00;100844.94;2588773;55;20129;-64
2020/12/30 10:12:50;;;;;;;10.52;6.43;;;;;;;0.15;100.00;100849.22;2588887;55;20130;-68
2020/12/30 10:15:17;;;;;;;8.52;5.65;;;;;;;0.09;100.00;100855.47;2588708;55;20194;-68
2020/12/30 10:17:46;;;;;;;10.23;5.68;;;;;;;0.02;100.00;100867.09;2583934;55;20131;-68
2020/12/30 10:20:14;;;;;;;8.52;5.10;;;;;;;0.05;100.00;100864.37;2588897;55;20138;-68
2020/12/30 10:22:45;;;;;;;11.50;5.03;;;;;;;0.04;100.00;100862.66;2588809;55;20109;-65
2020/12/30 10:25:12;;;;;;;11.50;7.62;;;;;;;0.01;100.00;100868.00;2588834;55;20117;-68
2020/12/30 10:27:40;;;;;;;13.32;7.37;;;;;;;-0.01;100.00;100864.53;2588928;55;20108;-67
2020/12/30 10:30:08;;;;;;;11.43;6.37;;;;;;;-0.04;100.00;100867.25;2588848;55;20112;-68
2020/12/30 10:32:36;;;;;;;6.95;5.25;;;;;;;-0.04;100.00;100872.50;2588796;55;20120;-64
2020/12/30 10:35:04;;;;;;;9.75;6.12;;;;;;;-0.03;100.00;100872.47;2588706;55;20107;-64
2020/12/30 10:37:31;;;;;;;8.93;6.47;;;;;;;-0.04;100.00;100876.00;2588876;55;20108;-64
2020/12/30 10:40:00;;;;;;;9.00;5.82;;;;;;;-0.02;100.00;100873.31;2588794;55;20101;-68
2020/12/30 10:42:27;;;;;;;6.70;4.90;;;;;;;0.06;100.00;100879.19;2588845;55;20130;-68
2020/12/30 10:44:54;;;;;;;12.05;6.37;;;;;;;0.02;100.00;100880.19;2588719;55;20118;-64
2020/12/30 10:47:22;;;;;;;9.25;7.37;;;;;;;0.03;100.00;100866.19;2588762;55;20170;-68
2020/12/30 10:49:49;;;;;;;10.25;5.82;;;;;;;0.01;100.00;100875.84;2588864;55;20125;-68
2020/12/30 10:52:16;;;;;;;9.88;5.95;;;;;;;-0.04;100.00;100876.00;2588786;55;20130;-67
2020/12/30 10:54:44;;;;;;;9.35;5.97;;;;;;;-0.05;100.00;100883.91;2588806;55;20614;-68
2020/12/30 10:57:12;;;;;;;10.43;6.22;;;;;;;-0.05;100.00;100883.91;2588922;55;20131;-68
2020/12/30 10:59:39;;;;;;;10.98;5.65;;;;;;;-0.03;100.00;100882.06;2588865;55;20138;-68
2020/12/30 11:02:07;;;;;;;10.90;6.65;;;;;;;-0.03;100.00;100892.56;2588881;55;20147;-64
2020/12/30 11:04:34;;;;;;;11.45;6.55;;;;;;;-0.02;100.00;100894.28;2588733;55;20120;-64
2020/12/30 11:07:02;;;;;;;10.95;6.37;;;;;;;-0.04;100.00;100883.88;2588721;55;20115;-68
2020/12/30 11:09:29;;;;;;;10.57;6.43;;;;;;;0.02;100.00;100895.06;2588757;55;20112;-68
2020/12/30 11:11:57;;;;;;;10.23;6.40;;;;;;;0.01;100.00;100886.34;2588655;55;20166;-64
2020/12/30 11:14:26;;;;;;;10.52;6.32;;;;;;;0.01;100.00;100890.72;2588970;55;20115;-68
2020/12/30 11:16:54;;;;;;;10.93;5.68;;;;;;;0.03;100.00;100883.66;2589570;55;20483;-68
2020/12/30 11:19:21;;;;;;;10.88;5.18;;;;;;;0.01;100.00;100893.34;2589524;55;20120;-68
2020/12/30 11:21:52;;;;;;;8.57;5.40;;;;;;;-0.01;100.00;100890.75;2589546;55;20116;-64